Aérodrome :
LOGIN :

S'inscrire | Disclaimer

   EN    FR    IT 

 










Légende :    VFR   VFR Marginal   IFR   IFR Intensif   IFR Très Intensif
Visi : 
Plafond : 
>= 8 km
>= 3000ft
5 à 8 km
1000 à 3000 ft
1500m à 5 km
500 à 1000 ft
800 à 1500m
200 à 500 ft
< 800m
< 200 ft
Symboles :   Orages  Brouillard  Fortes neiges  Fortes précipitations  Vent > 20 kt
SIGMETs :   Divers  Orages  Givrage  Turbulence  Onde Orograph.  Cendres Volcan.







- Altitude de l'aérodrome : 135 ft
- Code IATA : EDI
- Voir les cartes d'approche


EGPH - Edinburgh

DERNIER METAR :
  • 221750Z 24007KT 9999 SCT032 BKN047 12/06 Q1002

METARs EXPIRÉS :
  • 221720Z 25012KT 9999 FEW036 BKN045 12/06 Q1002
  • 221650Z 24013KT 9999 FEW033 BKN049 12/06 Q1002
  • 221620Z 25011KT 9999 FEW028 BKN043 12/06 Q1003
  • 221550Z 24013KT 9999 FEW026 BKN047 12/06 Q1003
  • 221520Z 25014KT 9999 BKN023 12/07 Q1003

TAF TAF EGPH
Valide du 22 à 18h jusqu'au 23 à 18h UTC


221659Z 2218/2318 22012KT 9999 SCT030
TEMPO 2218/2224 24016G26KT 7000 RA SHRA BKN014
PROB40
TEMPO 2300/2306 24020G30KT 7000 SHRA BKN014
PROB40
TEMPO 2306/2318 24020G30KT
PROB30
TEMPO 2315/2318 7000 RA BKN010
ATIS : +44 131 339 2823
Pas de NOTAMs connus pour ce terrain.



MET'MAP, la Météo Aéronautique d'un coup d'oeil ! - Copyright ORBIFLY Décembre 2007 - Disclaimer

ORBIFLY MET'MAP TEAM :

Programmation & Développement : Alexandra Zaïnal
Conception & Développement : Baudouin d'Aumeries
Co-Programmation & Développement : Marc-Olivier Méhu
Soutien technique & logistique : Manuel Goepfert

Contact : metmap@orbifly.com




SOURCES & CREDITS :

   NOAA